sensor_id;sensor_type;location;lat;lon;timestamp;P1;durP1;ratioP1;P2;durP2;ratioP2
8415;SDS011;4245;42.120;24.732;2023-06-26T00:00:36;8.23;;;6.47;;
8415;SDS011;4245;42.120;24.732;2023-06-26T00:03:04;9.57;;;6.78;;
8415;SDS011;4245;42.120;24.732;2023-06-26T00:05:31;10.03;;;6.33;;
8415;SDS011;4245;42.120;24.732;2023-06-26T00:07:58;12.33;;;7.10;;
8415;SDS011;4245;42.120;24.732;2023-06-26T00:10:25;13.03;;;7.03;;
8415;SDS011;4245;42.120;24.732;2023-06-26T00:12:54;7.57;;;6.00;;
8415;SDS011;4245;42.120;24.732;2023-06-26T00:15:21;10.30;;;6.43;;
8415;SDS011;4245;42.120;24.732;2023-06-26T00:17:47;10.53;;;6.40;;
8415;SDS011;4245;42.120;24.732;2023-06-26T00:20:15;11.73;;;6.37;;
8415;SDS011;4245;42.120;24.732;2023-06-26T00:22:44;8.40;;;6.43;;
8415;SDS011;4245;42.120;24.732;2023-06-26T00:25:11;10.43;;;6.80;;
8415;SDS011;4245;42.120;24.732;2023-06-26T00:27:38;9.60;;;6.60;;
8415;SDS011;4245;42.120;24.732;2023-06-26T00:30:06;12.60;;;7.00;;
8415;SDS011;4245;42.120;24.732;2023-06-26T00:32:34;11.63;;;6.73;;
8415;SDS011;4245;42.120;24.732;2023-06-26T00:35:00;10.57;;;6.50;;
8415;SDS011;4245;42.120;24.732;2023-06-26T00:37:27;8.53;;;6.50;;
8415;SDS011;4245;42.120;24.732;2023-06-26T00:39:54;10.60;;;6.50;;
8415;SDS011;4245;42.120;24.732;2023-06-26T00:42:21;9.37;;;6.43;;
8415;SDS011;4245;42.120;24.732;2023-06-26T00:44:48;11.13;;;6.87;;
8415;SDS011;4245;42.120;24.732;2023-06-26T00:47:16;9.87;;;6.43;;
8415;SDS011;4245;42.120;24.732;2023-06-26T00:49:43;10.73;;;6.60;;
8415;SDS011;4245;42.120;24.732;2023-06-26T00:52:10;13.43;;;6.30;;
8415;SDS011;4245;42.120;24.732;2023-06-26T00:54:37;12.07;;;6.67;;
8415;SDS011;4245;42.120;24.732;2023-06-26T00:57:04;13.63;;;7.13;;
8415;SDS011;4245;42.120;24.732;2023-06-26T00:59:31;12.20;;;6.97;;
8415;SDS011;4245;42.120;24.732;2023-06-26T01:01:58;10.63;;;6.40;;
8415;SDS011;4245;42.120;24.732;2023-06-26T01:04:26;10.10;;;6.63;;
8415;SDS011;4245;42.120;24.732;2023-06-26T01:06:57;8.47;;;6.43;;
8415;SDS011;4245;42.120;24.732;2023-06-26T01:09:26;7.80;;;6.83;;
8415;SDS011;4245;42.120;24.732;2023-06-26T01:11:53;9.57;;;6.53;;
8415;SDS011;4245;42.120;24.732;2023-06-26T01:14:20;10.83;;;6.87;;
8415;SDS011;4245;42.120;24.732;2023-06-26T01:16:47;10.80;;;7.27;;
8415;SDS011;4245;42.120;24.732;2023-06-26T01:19:18;10.60;;;6.70;;
8415;SDS011;4245;42.120;24.732;2023-06-26T01:21:51;9.97;;;7.33;;
8415;SDS011;4245;42.120;24.732;2023-06-26T01:24:24;10.50;;;7.00;;
8415;SDS011;4245;42.120;24.732;2023-06-26T01:26:59;9.63;;;6.97;;
8415;SDS011;4245;42.120;24.732;2023-06-26T01:29:28;14.90;;;7.23;;
8415;SDS011;4245;42.120;24.732;2023-06-26T01:31:56;15.47;;;7.33;;
8415;SDS011;4245;42.120;24.732;2023-06-26T01:34:24;11.43;;;7.13;;
8415;SDS011;4245;42.120;24.732;2023-06-26T01:36:51;10.77;;;7.07;;
8415;SDS011;4245;42.120;24.732;2023-06-26T01:39:18;10.23;;;7.17;;
8415;SDS011;4245;42.120;24.732;2023-06-26T01:41:45;12.37;;;7.80;;
8415;SDS011;4245;42.120;24.732;2023-06-26T01:44:17;10.50;;;7.70;;
8415;SDS011;4245;42.120;24.732;2023-06-26T01:46:54;12.83;;;9.00;;
8415;SDS011;4245;42.120;24.732;2023-06-26T01:49:30;13.73;;;8.63;;
8415;SDS011;4245;42.120;24.732;2023-06-26T01:52:06;13.27;;;8.33;;
8415;SDS011;4245;42.120;24.732;2023-06-26T01:54:37;11.47;;;8.53;;
8415;SDS011;4245;42.120;24.732;2023-06-26T01:57:13;14.30;;;8.43;;
8415;SDS011;4245;42.120;24.732;2023-06-26T01:59:42;13.03;;;8.17;;
8415;SDS011;4245;42.120;24.732;2023-06-26T02:02:09;13.30;;;8.73;;
8415;SDS011;4245;42.120;24.732;2023-06-26T02:04:36;12.20;;;8.97;;
8415;SDS011;4245;42.120;24.732;2023-06-26T02:07:03;12.10;;;8.57;;
8415;SDS011;4245;42.120;24.732;2023-06-26T02:09:31;11.30;;;8.93;;
8415;SDS011;4245;42.120;24.732;2023-06-26T02:11:57;14.97;;;8.80;;
8415;SDS011;4245;42.120;24.732;2023-06-26T02:14:24;13.13;;;9.50;;
8415;SDS011;4245;42.120;24.732;2023-06-26T02:16:53;13.53;;;9.07;;
8415;SDS011;4245;42.120;24.732;2023-06-26T02:19:20;11.43;;;8.70;;
8415;SDS011;4245;42.120;24.732;2023-06-26T02:21:47;12.03;;;8.63;;
8415;SDS011;4245;42.120;24.732;2023-06-26T02:24:15;13.07;;;9.13;;
8415;SDS011;4245;42.120;24.732;2023-06-26T02:26:41;14.53;;;9.30;;
8415;SDS011;4245;42.120;24.732;2023-06-26T02:29:08;15.43;;;9.20;;
8415;SDS011;4245;42.120;24.732;2023-06-26T02:31:35;15.57;;;9.83;;
8415;SDS011;4245;42.120;24.732;2023-06-26T02:34:03;14.73;;;9.60;;
8415;SDS011;4245;42.120;24.732;2023-06-26T02:36:30;11.77;;;9.03;;
8415;SDS011;4245;42.120;24.732;2023-06-26T02:38:57;13.33;;;9.10;;
8415;SDS011;4245;42.120;24.732;2023-06-26T02:41:24;16.57;;;9.60;;
8415;SDS011;4245;42.120;24.732;2023-06-26T02:43:51;15.10;;;9.90;;
8415;SDS011;4245;42.120;24.732;2023-06-26T02:46:17;15.03;;;10.43;;
8415;SDS011;4245;42.120;24.732;2023-06-26T02:48:44;16.23;;;9.50;;
8415;SDS011;4245;42.120;24.732;2023-06-26T02:51:12;15.70;;;10.33;;
8415;SDS011;4245;42.120;24.732;2023-06-26T02:53:39;14.43;;;9.73;;
8415;SDS011;4245;42.120;24.732;2023-06-26T02:56:06;12.97;;;8.90;;
8415;SDS011;4245;42.120;24.732;2023-06-26T02:58:33;13.77;;;8.83;;
8415;SDS011;4245;42.120;24.732;2023-06-26T03:01:00;12.07;;;9.30;;
8415;SDS011;4245;42.120;24.732;2023-06-26T03:03:27;14.63;;;9.30;;
8415;SDS011;4245;42.120;24.732;2023-06-26T03:05:54;12.03;;;9.20;;
8415;SDS011;4245;42.120;24.732;2023-06-26T03:08:23;12.53;;;9.33;;
8415;SDS011;4245;42.120;24.732;2023-06-26T03:10:50;14.93;;;9.47;;
8415;SDS011;4245;42.120;24.732;2023-06-26T03:13:17;14.33;;;9.23;;
8415;SDS011;4245;42.120;24.732;2023-06-26T03:15:44;14.10;;;9.47;;
8415;SDS011;4245;42.120;24.732;2023-06-26T03:18:11;16.10;;;9.00;;
8415;SDS011;4245;42.120;24.732;2023-06-26T03:20:37;13.23;;;9.57;;
8415;SDS011;4245;42.120;24.732;2023-06-26T03:23:05;14.73;;;10.30;;
8415;SDS011;4245;42.120;24.732;2023-06-26T03:25:33;15.47;;;9.20;;
8415;SDS011;4245;42.120;24.732;2023-06-26T03:28:00;13.37;;;9.63;;
8415;SDS011;4245;42.120;24.732;2023-06-26T03:30:27;15.13;;;9.63;;
8415;SDS011;4245;42.120;24.732;2023-06-26T03:32:54;14.27;;;10.10;;
8415;SDS011;4245;42.120;24.732;2023-06-26T03:35:21;15.33;;;10.07;;
8415;SDS011;4245;42.120;24.732;2023-06-26T03:37:48;16.73;;;10.10;;
8415;SDS011;4245;42.120;24.732;2023-06-26T03:40:15;15.20;;;10.23;;
8415;SDS011;4245;42.120;24.732;2023-06-26T03:42:44;15.50;;;10.17;;
8415;SDS011;4245;42.120;24.732;2023-06-26T03:45:11;14.90;;;10.90;;
8415;SDS011;4245;42.120;24.732;2023-06-26T03:47:38;13.53;;;10.07;;
8415;SDS011;4245;42.120;24.732;2023-06-26T03:50:06;17.53;;;9.87;;
8415;SDS011;4245;42.120;24.732;2023-06-26T03:52:33;16.83;;;9.80;;
8415;SDS011;4245;42.120;24.732;2023-06-26T03:55:00;14.50;;;10.13;;
8415;SDS011;4245;42.120;24.732;2023-06-26T03:57:28;14.50;;;9.50;;
8415;SDS011;4245;42.120;24.732;2023-06-26T03:59:56;14.90;;;10.10;;
8415;SDS011;4245;42.120;24.732;2023-06-26T04:02:23;14.47;;;10.50;;
8415;SDS011;4245;42.120;24.732;2023-06-26T04:04:50;22.57;;;9.40;;
8415;SDS011;4245;42.120;24.732;2023-06-26T04:07:17;16.97;;;10.03;;
8415;SDS011;4245;42.120;24.732;2023-06-26T04:09:44;15.27;;;9.60;;
8415;SDS011;4245;42.120;24.732;2023-06-26T04:12:11;13.37;;;9.73;;
8415;SDS011;4245;42.120;24.732;2023-06-26T04:14:38;15.40;;;10.70;;
8415;SDS011;4245;42.120;24.732;2023-06-26T04:17:06;14.07;;;10.33;;
8415;SDS011;4245;42.120;24.732;2023-06-26T04:19:33;16.23;;;11.47;;
8415;SDS011;4245;42.120;24.732;2023-06-26T04:22:01;15.47;;;10.93;;
8415;SDS011;4245;42.120;24.732;2023-06-26T04:24:29;12.87;;;9.67;;
8415;SDS011;4245;42.120;24.732;2023-06-26T04:26:56;15.97;;;11.20;;
8415;SDS011;4245;42.120;24.732;2023-06-26T04:29:23;17.47;;;11.30;;
8415;SDS011;4245;42.120;24.732;2023-06-26T04:31:52;15.83;;;10.90;;
8415;SDS011;4245;42.120;24.732;2023-06-26T04:34:24;15.17;;;11.10;;
8415;SDS011;4245;42.120;24.732;2023-06-26T04:36:51;14.83;;;10.63;;
8415;SDS011;4245;42.120;24.732;2023-06-26T04:39:18;16.10;;;11.27;;
8415;SDS011;4245;42.120;24.732;2023-06-26T04:41:46;14.77;;;11.13;;
8415;SDS011;4245;42.120;24.732;2023-06-26T04:44:13;17.30;;;10.47;;
8415;SDS011;4245;42.120;24.732;2023-06-26T04:46:40;18.87;;;10.73;;
8415;SDS011;4245;42.120;24.732;2023-06-26T04:49:07;21.03;;;11.20;;
8415;SDS011;4245;42.120;24.732;2023-06-26T04:51:36;15.95;;;11.40;;
8415;SDS011;4245;42.120;24.732;2023-06-26T04:54:05;13.37;;;10.30;;
8415;SDS011;4245;42.120;24.732;2023-06-26T04:56:33;14.73;;;11.10;;
8415;SDS011;4245;42.120;24.732;2023-06-26T04:59:00;15.13;;;11.00;;
8415;SDS011;4245;42.120;24.732;2023-06-26T05:01:26;14.90;;;10.63;;
8415;SDS011;4245;42.120;24.732;2023-06-26T05:03:54;14.47;;;10.17;;
8415;SDS011;4245;42.120;24.732;2023-06-26T05:06:21;14.45;;;10.02;;
8415;SDS011;4245;42.120;24.732;2023-06-26T05:08:49;16.02;;;10.25;;
8415;SDS011;4245;42.120;24.732;2023-06-26T05:11:17;17.58;;;10.50;;
8415;SDS011;4245;42.120;24.732;2023-06-26T05:13:44;14.25;;;11.32;;
8415;SDS011;4245;42.120;24.732;2023-06-26T05:16:11;13.85;;;9.90;;
8415;SDS011;4245;42.120;24.732;2023-06-26T05:18:38;13.73;;;10.60;;
8415;SDS011;4245;42.120;24.732;2023-06-26T05:21:05;20.40;;;11.55;;
8415;SDS011;4245;42.120;24.732;2023-06-26T05:23:33;17.63;;;11.48;;
8415;SDS011;4245;42.120;24.732;2023-06-26T05:26:02;14.43;;;9.57;;
8415;SDS011;4245;42.120;24.732;2023-06-26T05:28:29;17.23;;;9.95;;
8415;SDS011;4245;42.120;24.732;2023-06-26T05:30:57;13.15;;;9.77;;
8415;SDS011;4245;42.120;24.732;2023-06-26T05:33:25;17.02;;;9.82;;
8415;SDS011;4245;42.120;24.732;2023-06-26T05:35:53;18.10;;;9.98;;
8415;SDS011;4245;42.120;24.732;2023-06-26T05:38:21;14.18;;;10.68;;
8415;SDS011;4245;42.120;24.732;2023-06-26T05:40:48;13.70;;;11.15;;
8415;SDS011;4245;42.120;24.732;2023-06-26T05:43:17;16.55;;;10.88;;
8415;SDS011;4245;42.120;24.732;2023-06-26T05:45:46;17.55;;;9.85;;
8415;SDS011;4245;42.120;24.732;2023-06-26T05:48:13;15.35;;;9.70;;
8415;SDS011;4245;42.120;24.732;2023-06-26T05:50:40;12.82;;;9.07;;
8415;SDS011;4245;42.120;24.732;2023-06-26T05:53:09;11.88;;;9.32;;
8415;SDS011;4245;42.120;24.732;2023-06-26T05:55:36;12.23;;;9.50;;
8415;SDS011;4245;42.120;24.732;2023-06-26T05:58:04;15.38;;;9.75;;
8415;SDS011;4245;42.120;24.732;2023-06-26T06:00:33;14.50;;;9.68;;
8415;SDS011;4245;42.120;24.732;2023-06-26T06:03:00;13.27;;;9.07;;
8415;SDS011;4245;42.120;24.732;2023-06-26T06:05:27;11.77;;;9.15;;
8415;SDS011;4245;42.120;24.732;2023-06-26T06:07:54;11.38;;;8.45;;
8415;SDS011;4245;42.120;24.732;2023-06-26T06:10:21;12.43;;;8.82;;
8415;SDS011;4245;42.120;24.732;2023-06-26T06:12:48;15.50;;;9.20;;
8415;SDS011;4245;42.120;24.732;2023-06-26T06:15:15;10.75;;;8.55;;
8415;SDS011;4245;42.120;24.732;2023-06-26T06:17:43;18.52;;;8.38;;
8415;SDS011;4245;42.120;24.732;2023-06-26T06:20:10;13.82;;;8.70;;
8415;SDS011;4245;42.120;24.732;2023-06-26T06:22:37;14.25;;;8.57;;
8415;SDS011;4245;42.120;24.732;2023-06-26T06:25:04;13.93;;;8.45;;
8415;SDS011;4245;42.120;24.732;2023-06-26T06:27:31;10.40;;;8.85;;
8415;SDS011;4245;42.120;24.732;2023-06-26T06:29:58;13.70;;;9.10;;
8415;SDS011;4245;42.120;24.732;2023-06-26T06:32:25;14.77;;;9.10;;
8415;SDS011;4245;42.120;24.732;2023-06-26T06:34:53;11.93;;;8.00;;
8415;SDS011;4245;42.120;24.732;2023-06-26T06:37:20;12.93;;;8.25;;
8415;SDS011;4245;42.120;24.732;2023-06-26T06:39:47;11.80;;;7.88;;
8415;SDS011;4245;42.120;24.732;2023-06-26T06:42:14;11.65;;;7.90;;
8415;SDS011;4245;42.120;24.732;2023-06-26T06:47:16;10.27;;;8.25;;
8415;SDS011;4245;42.120;24.732;2023-06-26T06:49:42;12.55;;;7.72;;
8415;SDS011;4245;42.120;24.732;2023-06-26T06:52:10;11.13;;;8.32;;
8415;SDS011;4245;42.120;24.732;2023-06-26T06:54:50;10.10;;;7.57;;
8415;SDS011;4245;42.120;24.732;2023-06-26T06:57:19;13.88;;;7.18;;
8415;SDS011;4245;42.120;24.732;2023-06-26T06:59:46;12.93;;;7.82;;
8415;SDS011;4245;42.120;24.732;2023-06-26T07:02:13;14.90;;;7.38;;
8415;SDS011;4245;42.120;24.732;2023-06-26T07:04:40;11.20;;;7.72;;
8415;SDS011;4245;42.120;24.732;2023-06-26T07:07:07;13.60;;;7.82;;
8415;SDS011;4245;42.120;24.732;2023-06-26T07:09:36;9.02;;;7.68;;
8415;SDS011;4245;42.120;24.732;2023-06-26T07:12:03;12.27;;;8.60;;
8415;SDS011;4245;42.120;24.732;2023-06-26T07:14:30;13.32;;;7.55;;
8415;SDS011;4245;42.120;24.732;2023-06-26T07:16:57;7.88;;;7.00;;
8415;SDS011;4245;42.120;24.732;2023-06-26T07:19:24;14.50;;;7.70;;
8415;SDS011;4245;42.120;24.732;2023-06-26T07:21:50;17.48;;;7.00;;
8415;SDS011;4245;42.120;24.732;2023-06-26T07:24:17;9.77;;;6.57;;
8415;SDS011;4245;42.120;24.732;2023-06-26T07:26:45;9.10;;;7.38;;
8415;SDS011;4245;42.120;24.732;2023-06-26T07:29:12;13.15;;;7.97;;
8415;SDS011;4245;42.120;24.732;2023-06-26T07:31:39;14.38;;;7.18;;
8415;SDS011;4245;42.120;24.732;2023-06-26T07:34:06;13.88;;;7.10;;
8415;SDS011;4245;42.120;24.732;2023-06-26T07:36:32;12.32;;;6.95;;
8415;SDS011;4245;42.120;24.732;2023-06-26T07:38:59;12.27;;;7.10;;
8415;SDS011;4245;42.120;24.732;2023-06-26T07:41:26;10.10;;;6.45;;
8415;SDS011;4245;42.120;24.732;2023-06-26T07:43:56;9.80;;;5.95;;
8415;SDS011;4245;42.120;24.732;2023-06-26T07:46:24;9.35;;;7.07;;
8415;SDS011;4245;42.120;24.732;2023-06-26T07:48:51;10.30;;;6.05;;
8415;SDS011;4245;42.120;24.732;2023-06-26T07:51:18;12.70;;;6.32;;
8415;SDS011;4245;42.120;24.732;2023-06-26T07:53:45;7.70;;;6.20;;
8415;SDS011;4245;42.120;24.732;2023-06-26T07:56:11;9.90;;;6.78;;
8415;SDS011;4245;42.120;24.732;2023-06-26T07:58:38;9.07;;;6.60;;
8415;SDS011;4245;42.120;24.732;2023-06-26T08:01:06;8.40;;;6.35;;
8415;SDS011;4245;42.120;24.732;2023-06-26T08:03:33;8.00;;;6.00;;
8415;SDS011;4245;42.120;24.732;2023-06-26T08:06:00;13.15;;;9.45;;
8415;SDS011;4245;42.120;24.732;2023-06-26T08:08:27;12.05;;;9.40;;
8415;SDS011;4245;42.120;24.732;2023-06-26T08:10:53;13.77;;;10.48;;
8415;SDS011;4245;42.120;24.732;2023-06-26T08:13:20;9.93;;;7.50;;
8415;SDS011;4245;42.120;24.732;2023-06-26T08:15:47;13.32;;;7.15;;
8415;SDS011;4245;42.120;24.732;2023-06-26T08:18:15;11.18;;;6.07;;
8415;SDS011;4245;42.120;24.732;2023-06-26T08:20:42;7.68;;;5.82;;
8415;SDS011;4245;42.120;24.732;2023-06-26T08:23:09;12.20;;;6.57;;
8415;SDS011;4245;42.120;24.732;2023-06-26T08:25:35;10.85;;;6.85;;
8415;SDS011;4245;42.120;24.732;2023-06-26T08:28:02;9.63;;;6.40;;
8415;SDS011;4245;42.120;24.732;2023-06-26T08:30:29;9.02;;;6.03;;
8415;SDS011;4245;42.120;24.732;2023-06-26T08:32:56;11.65;;;5.97;;
8415;SDS011;4245;42.120;24.732;2023-06-26T08:35:24;13.25;;;6.22;;
8415;SDS011;4245;42.120;24.732;2023-06-26T08:37:51;14.35;;;7.13;;
8415;SDS011;4245;42.120;24.732;2023-06-26T08:40:19;6.95;;;6.25;;
8415;SDS011;4245;42.120;24.732;2023-06-26T08:42:47;13.35;;;7.32;;
8415;SDS011;4245;42.120;24.732;2023-06-26T08:45:17;13.90;;;7.10;;
8415;SDS011;4245;42.120;24.732;2023-06-26T08:47:44;8.70;;;6.57;;
8415;SDS011;4245;42.120;24.732;2023-06-26T08:50:13;9.93;;;6.80;;
8415;SDS011;4245;42.120;24.732;2023-06-26T08:52:45;11.57;;;7.70;;
8415;SDS011;4245;42.120;24.732;2023-06-26T08:55:19;13.00;;;7.97;;
8415;SDS011;4245;42.120;24.732;2023-06-26T08:57:49;18.25;;;8.35;;
8415;SDS011;4245;42.120;24.732;2023-06-26T09:00:17;12.50;;;6.97;;
8415;SDS011;4245;42.120;24.732;2023-06-26T09:02:44;10.82;;;6.35;;
8415;SDS011;4245;42.120;24.732;2023-06-26T09:05:11;12.38;;;6.68;;
8415;SDS011;4245;42.120;24.732;2023-06-26T09:07:38;13.32;;;6.47;;
8415;SDS011;4245;42.120;24.732;2023-06-26T09:10:07;16.02;;;7.10;;
8415;SDS011;4245;42.120;24.732;2023-06-26T09:12:34;9.32;;;6.38;;
8415;SDS011;4245;42.120;24.732;2023-06-26T09:15:02;9.65;;;6.55;;
8415;SDS011;4245;42.120;24.732;2023-06-26T09:17:33;7.45;;;6.40;;
8415;SDS011;4245;42.120;24.732;2023-06-26T09:20:06;22.20;;;10.93;;
8415;SDS011;4245;42.120;24.732;2023-06-26T09:22:36;9.32;;;6.10;;
8415;SDS011;4245;42.120;24.732;2023-06-26T09:25:04;8.45;;;6.00;;
8415;SDS011;4245;42.120;24.732;2023-06-26T09:27:33;9.73;;;5.78;;
8415;SDS011;4245;42.120;24.732;2023-06-26T09:30:01;12.05;;;6.03;;
8415;SDS011;4245;42.120;24.732;2023-06-26T09:32:28;11.15;;;6.05;;
8415;SDS011;4245;42.120;24.732;2023-06-26T09:34:55;7.78;;;5.75;;
8415;SDS011;4245;42.120;24.732;2023-06-26T09:37:22;8.10;;;5.53;;
8415;SDS011;4245;42.120;24.732;2023-06-26T09:39:52;10.18;;;6.10;;
8415;SDS011;4245;42.120;24.732;2023-06-26T09:42:20;12.95;;;6.65;;
8415;SDS011;4245;42.120;24.732;2023-06-26T09:44:50;11.65;;;6.00;;
8415;SDS011;4245;42.120;24.732;2023-06-26T09:47:18;9.60;;;6.80;;
8415;SDS011;4245;42.120;24.732;2023-06-26T09:49:46;8.00;;;5.90;;
8415;SDS011;4245;42.120;24.732;2023-06-26T09:52:13;17.00;;;6.88;;
8415;SDS011;4245;42.120;24.732;2023-06-26T09:54:41;10.10;;;6.57;;
8415;SDS011;4245;42.120;24.732;2023-06-26T09:57:10;8.93;;;5.90;;
8415;SDS011;4245;42.120;24.732;2023-06-26T09:59:39;14.75;;;6.60;;
8415;SDS011;4245;42.120;24.732;2023-06-26T10:02:07;12.15;;;6.60;;
8415;SDS011;4245;42.120;24.732;2023-06-26T10:04:36;7.18;;;5.95;;
8415;SDS011;4245;42.120;24.732;2023-06-26T10:07:04;9.90;;;6.30;;
8415;SDS011;4245;42.120;24.732;2023-06-26T10:09:32;9.93;;;6.90;;
8415;SDS011;4245;42.120;24.732;2023-06-26T10:12:02;30.45;;;21.67;;
8415;SDS011;4245;42.120;24.732;2023-06-26T10:14:32;14.50;;;7.45;;
8415;SDS011;4245;42.120;24.732;2023-06-26T10:17:03;11.60;;;5.85;;
8415;SDS011;4245;42.120;24.732;2023-06-26T10:19:33;10.75;;;6.88;;
8415;SDS011;4245;42.120;24.732;2023-06-26T10:22:01;12.30;;;9.95;;
8415;SDS011;4245;42.120;24.732;2023-06-26T10:24:31;9.77;;;6.60;;
8415;SDS011;4245;42.120;24.732;2023-06-26T10:27:02;11.30;;;7.28;;
8415;SDS011;4245;42.120;24.732;2023-06-26T10:29:31;8.82;;;6.05;;
8415;SDS011;4245;42.120;24.732;2023-06-26T10:32:00;10.77;;;5.68;;
8415;SDS011;4245;42.120;24.732;2023-06-26T10:34:31;9.85;;;6.20;;
8415;SDS011;4245;42.120;24.732;2023-06-26T10:36:58;13.90;;;6.65;;
8415;SDS011;4245;42.120;24.732;2023-06-26T10:39:26;10.43;;;6.38;;
8415;SDS011;4245;42.120;24.732;2023-06-26T10:41:55;8.93;;;5.78;;
8415;SDS011;4245;42.120;24.732;2023-06-26T10:44:40;6.63;;;5.18;;
8415;SDS011;4245;42.120;24.732;2023-06-26T10:47:09;7.38;;;4.57;;
8415;SDS011;4245;42.120;24.732;2023-06-26T10:49:37;6.00;;;4.43;;
8415;SDS011;4245;42.120;24.732;2023-06-26T10:52:05;6.72;;;4.80;;
8415;SDS011;4245;42.120;24.732;2023-06-26T10:54:32;11.10;;;5.00;;
8415;SDS011;4245;42.120;24.732;2023-06-26T10:56:59;6.40;;;4.68;;
8415;SDS011;4245;42.120;24.732;2023-06-26T10:59:28;8.85;;;4.88;;
8415;SDS011;4245;42.120;24.732;2023-06-26T11:01:57;8.57;;;5.10;;
8415;SDS011;4245;42.120;24.732;2023-06-26T11:04:36;5.18;;;4.63;;
8415;SDS011;4245;42.120;24.732;2023-06-26T11:07:14;8.32;;;5.60;;
8415;SDS011;4245;42.120;24.732;2023-06-26T11:09:53;9.07;;;5.85;;
8415;SDS011;4245;42.120;24.732;2023-06-26T11:12:34;7.95;;;5.57;;
8415;SDS011;4245;42.120;24.732;2023-06-26T11:15:02;7.90;;;5.38;;
8415;SDS011;4245;42.120;24.732;2023-06-26T11:17:29;8.15;;;5.63;;
8415;SDS011;4245;42.120;24.732;2023-06-26T11:19:57;7.53;;;5.40;;
8415;SDS011;4245;42.120;24.732;2023-06-26T11:22:25;9.43;;;5.90;;
8415;SDS011;4245;42.120;24.732;2023-06-26T11:24:53;6.60;;;5.38;;
8415;SDS011;4245;42.120;24.732;2023-06-26T11:27:20;7.75;;;5.45;;
8415;SDS011;4245;42.120;24.732;2023-06-26T11:29:49;7.47;;;4.70;;
8415;SDS011;4245;42.120;24.732;2023-06-26T11:32:16;9.93;;;4.93;;
8415;SDS011;4245;42.120;24.732;2023-06-26T11:34:42;9.48;;;5.53;;
8415;SDS011;4245;42.120;24.732;2023-06-26T11:37:11;7.32;;;5.47;;
8415;SDS011;4245;42.120;24.732;2023-06-26T11:39:38;8.68;;;5.63;;
8415;SDS011;4245;42.120;24.732;2023-06-26T11:42:04;12.07;;;5.25;;
8415;SDS011;4245;42.120;24.732;2023-06-26T11:44:32;8.65;;;5.85;;
8415;SDS011;4245;42.120;24.732;2023-06-26T11:47:06;7.97;;;5.10;;
8415;SDS011;4245;42.120;24.732;2023-06-26T11:49:32;11.15;;;5.65;;
8415;SDS011;4245;42.120;24.732;2023-06-26T11:51:59;11.45;;;5.95;;
8415;SDS011;4245;42.120;24.732;2023-06-26T11:54:30;11.45;;;6.22;;
8415;SDS011;4245;42.120;24.732;2023-06-26T11:56:57;17.92;;;8.32;;
8415;SDS011;4245;42.120;24.732;2023-06-26T11:59:35;13.73;;;8.30;;
8415;SDS011;4245;42.120;24.732;2023-06-26T12:02:05;12.13;;;8.18;;
8415;SDS011;4245;42.120;24.732;2023-06-26T12:04:33;16.63;;;9.35;;
8415;SDS011;4245;42.120;24.732;2023-06-26T12:07:02;13.05;;;7.70;;
8415;SDS011;4245;42.120;24.732;2023-06-26T12:09:33;12.55;;;7.18;;
8415;SDS011;4245;42.120;24.732;2023-06-26T12:12:04;10.38;;;6.97;;
8415;SDS011;4245;42.120;24.732;2023-06-26T12:14:31;11.25;;;7.90;;
8415;SDS011;4245;42.120;24.732;2023-06-26T12:17:03;11.07;;;7.75;;
8415;SDS011;4245;42.120;24.732;2023-06-26T12:19:31;8.55;;;7.63;;
8415;SDS011;4245;42.120;24.732;2023-06-26T12:21:58;11.93;;;7.07;;
8415;SDS011;4245;42.120;24.732;2023-06-26T12:24:25;7.25;;;6.45;;
8415;SDS011;4245;42.120;24.732;2023-06-26T12:26:54;8.40;;;6.43;;
8415;SDS011;4245;42.120;24.732;2023-06-26T12:29:28;7.35;;;6.25;;
8415;SDS011;4245;42.120;24.732;2023-06-26T12:31:57;6.30;;;4.90;;
8415;SDS011;4245;42.120;24.732;2023-06-26T12:34:26;6.30;;;5.15;;
8415;SDS011;4245;42.120;24.732;2023-06-26T12:36:58;7.20;;;6.03;;
8415;SDS011;4245;42.120;24.732;2023-06-26T12:39:27;6.60;;;5.10;;
8415;SDS011;4245;42.120;24.732;2023-06-26T12:41:56;9.10;;;5.20;;
8415;SDS011;4245;42.120;24.732;2023-06-26T12:44:26;5.93;;;4.90;;
8415;SDS011;4245;42.120;24.732;2023-06-26T12:46:54;8.07;;;5.85;;
8415;SDS011;4245;42.120;24.732;2023-06-26T12:49:29;6.90;;;5.82;;
8415;SDS011;4245;42.120;24.732;2023-06-26T12:51:58;7.82;;;5.00;;
8415;SDS011;4245;42.120;24.732;2023-06-26T12:54:25;5.93;;;4.45;;
8415;SDS011;4245;42.120;24.732;2023-06-26T12:56:52;6.47;;;4.20;;
8415;SDS011;4245;42.120;24.732;2023-06-26T12:59:21;5.07;;;4.53;;
8415;SDS011;4245;42.120;24.732;2023-06-26T13:01:48;8.27;;;4.38;;
8415;SDS011;4245;42.120;24.732;2023-06-26T13:04:15;5.90;;;5.13;;
8415;SDS011;4245;42.120;24.732;2023-06-26T13:06:42;6.72;;;5.57;;
8415;SDS011;4245;42.120;24.732;2023-06-26T13:09:09;9.10;;;6.25;;
8415;SDS011;4245;42.120;24.732;2023-06-26T13:11:36;7.63;;;5.50;;
8415;SDS011;4245;42.120;24.732;2023-06-26T13:14:03;7.90;;;4.97;;
8415;SDS011;4245;42.120;24.732;2023-06-26T13:16:32;12.48;;;5.13;;
8415;SDS011;4245;42.120;24.732;2023-06-26T13:18:59;9.38;;;5.05;;
8415;SDS011;4245;42.120;24.732;2023-06-26T13:21:26;9.05;;;5.25;;
8415;SDS011;4245;42.120;24.732;2023-06-26T13:23:54;8.40;;;5.30;;
8415;SDS011;4245;42.120;24.732;2023-06-26T13:26:21;11.13;;;6.15;;
8415;SDS011;4245;42.120;24.732;2023-06-26T13:28:48;7.93;;;5.35;;
8415;SDS011;4245;42.120;24.732;2023-06-26T13:31:15;6.15;;;4.50;;
8415;SDS011;4245;42.120;24.732;2023-06-26T13:33:43;7.65;;;5.03;;
8415;SDS011;4245;42.120;24.732;2023-06-26T13:36:11;9.73;;;6.63;;
8415;SDS011;4245;42.120;24.732;2023-06-26T13:38:37;7.78;;;4.95;;
8415;SDS011;4245;42.120;24.732;2023-06-26T13:41:04;6.88;;;4.32;;
8415;SDS011;4245;42.120;24.732;2023-06-26T13:43:31;5.32;;;4.05;;
8415;SDS011;4245;42.120;24.732;2023-06-26T13:45:58;7.47;;;4.80;;
8415;SDS011;4245;42.120;24.732;2023-06-26T13:48:25;6.85;;;4.50;;
8415;SDS011;4245;42.120;24.732;2023-06-26T13:50:53;6.35;;;4.53;;
8415;SDS011;4245;42.120;24.732;2023-06-26T13:53:20;7.03;;;4.82;;
8415;SDS011;4245;42.120;24.732;2023-06-26T13:55:47;8.27;;;5.20;;
8415;SDS011;4245;42.120;24.732;2023-06-26T13:58:14;6.88;;;4.35;;
8415;SDS011;4245;42.120;24.732;2023-06-26T14:00:41;8.10;;;4.25;;
8415;SDS011;4245;42.120;24.732;2023-06-26T14:03:09;8.25;;;4.20;;
8415;SDS011;4245;42.120;24.732;2023-06-26T14:05:37;7.78;;;4.20;;
8415;SDS011;4245;42.120;24.732;2023-06-26T14:08:07;5.13;;;3.85;;
8415;SDS011;4245;42.120;24.732;2023-06-26T14:10:35;9.43;;;4.32;;
8415;SDS011;4245;42.120;24.732;2023-06-26T14:13:02;6.18;;;3.85;;
8415;SDS011;4245;42.120;24.732;2023-06-26T14:15:30;5.38;;;3.40;;
8415;SDS011;4245;42.120;24.732;2023-06-26T14:17:56;4.97;;;3.88;;
8415;SDS011;4245;42.120;24.732;2023-06-26T14:20:24;7.95;;;4.15;;
8415;SDS011;4245;42.120;24.732;2023-06-26T14:22:51;6.00;;;4.30;;
8415;SDS011;4245;42.120;24.732;2023-06-26T14:25:19;8.35;;;3.67;;
8415;SDS011;4245;42.120;24.732;2023-06-26T14:27:45;5.82;;;4.15;;
8415;SDS011;4245;42.120;24.732;2023-06-26T14:30:12;4.85;;;4.03;;
8415;SDS011;4245;42.120;24.732;2023-06-26T14:32:39;6.57;;;4.05;;
8415;SDS011;4245;42.120;24.732;2023-06-26T14:35:07;4.75;;;4.07;;
8415;SDS011;4245;42.120;24.732;2023-06-26T14:37:35;7.95;;;4.88;;
8415;SDS011;4245;42.120;24.732;2023-06-26T14:40:05;6.07;;;5.00;;
8415;SDS011;4245;42.120;24.732;2023-06-26T14:42:34;10.27;;;4.43;;
8415;SDS011;4245;42.120;24.732;2023-06-26T14:45:01;6.93;;;4.40;;
8415;SDS011;4245;42.120;24.732;2023-06-26T14:47:28;5.55;;;3.95;;
8415;SDS011;4245;42.120;24.732;2023-06-26T14:49:55;8.38;;;4.68;;
8415;SDS011;4245;42.120;24.732;2023-06-26T14:52:22;5.75;;;4.20;;
8415;SDS011;4245;42.120;24.732;2023-06-26T14:54:48;10.00;;;4.40;;
8415;SDS011;4245;42.120;24.732;2023-06-26T14:57:15;7.22;;;4.07;;